Time;durP1;ratioP1;P1;durP2;ratioP2;P2;SDS_P1;SDS_P2;PMS_P1;PMS_P2;Temp;Humidity;BMP_temperature;BMP_pressure;BME280_temperature;BME280_humidity;BME280_pressure;Samples;Min_cycle;Max_cycle;Signal;HPM_P1;HPM_P2
2024/01/31 00:01:44;;;;;;;16.77;10.43;;;;;;;-146.29;100.00;59205.81;5094912;28;20255;-69
2024/01/31 00:04:09;;;;;;;17.80;9.93;;;;;;;-146.29;100.00;59205.81;5079750;28;20182;-69
2024/01/31 00:06:34;;;;;;;13.73;9.80;;;;;;;-146.29;100.00;59205.81;5096084;28;20192;-68
2024/01/31 00:09:00;;;;;;;17.70;10.73;;;;;;;-146.29;100.00;59205.81;5086382;28;20224;-68
2024/01/31 00:11:29;;;;;;;16.67;10.03;;;;;;;-146.29;100.00;59205.81;5088359;28;20377;-67
2024/01/31 00:13:56;;;;;;;15.83;9.90;;;;;;;-146.29;100.00;59205.81;5079262;28;20200;-69
2024/01/31 00:16:21;;;;;;;15.73;9.53;;;;;;;-146.29;100.00;59205.81;5067055;28;20444;-69
2024/01/31 00:18:47;;;;;;;15.63;10.20;;;;;;;-146.29;100.00;59205.81;5084548;28;20460;-68
2024/01/31 00:21:12;;;;;;;17.00;9.93;;;;;;;-146.29;100.00;59205.81;5089914;28;20774;-67
2024/01/31 00:23:38;;;;;;;13.10;9.27;;;;;;;-146.29;100.00;59205.81;5086158;28;20224;-69
2024/01/31 00:26:03;;;;;;;13.13;9.40;;;;;;;-146.29;100.00;59205.81;5087265;28;20685;-69
2024/01/31 00:28:29;;;;;;;18.10;10.80;;;;;;;-146.29;100.00;59205.81;5081952;28;20239;-67
2024/01/31 00:30:54;;;;;;;20.90;10.47;;;;;;;-146.29;100.00;59205.81;5084066;28;20286;-68
2024/01/31 00:33:20;;;;;;;16.40;10.50;;;;;;;-146.29;100.00;59205.81;5081793;28;20520;-67
2024/01/31 00:35:45;;;;;;;14.97;9.90;;;;;;;-146.29;100.00;59205.81;5089255;28;20189;-68
2024/01/31 00:38:10;;;;;;;12.73;9.40;;;;;;;-146.29;100.00;59205.81;5077102;28;20177;-69
2024/01/31 00:40:36;;;;;;;15.97;10.10;;;;;;;-146.29;100.00;59205.81;5093254;28;20257;-68
2024/01/31 00:43:01;;;;;;;18.70;9.73;;;;;;;-146.29;100.00;59205.81;5087182;28;20213;-68
2024/01/31 00:45:28;;;;;;;14.27;9.30;;;;;;;-146.29;100.00;59205.81;5079224;28;20251;-68
2024/01/31 00:47:53;;;;;;;24.20;10.50;;;;;;;-146.29;100.00;59205.81;5089666;28;20188;-69
2024/01/31 00:50:19;;;;;;;20.20;9.63;;;;;;;-146.29;100.00;59205.81;5090099;28;20940;-69
2024/01/31 00:52:44;;;;;;;14.87;9.70;;;;;;;-146.29;100.00;59205.81;5069785;28;20801;-70
2024/01/31 00:55:10;;;;;;;16.07;9.93;;;;;;;-146.29;100.00;59205.81;5087401;28;20190;-70
2024/01/31 00:57:35;;;;;;;18.00;10.00;;;;;;;-146.29;100.00;59205.81;5098025;28;20201;-69
2024/01/31 01:00:05;;;;;;;14.63;9.67;;;;;;;-146.29;100.00;59205.81;5098412;28;20211;-69
2024/01/31 01:02:31;;;;;;;17.13;9.43;;;;;;;-146.29;100.00;59205.81;5083387;28;20225;-68
2024/01/31 01:04:56;;;;;;;13.77;9.67;;;;;;;-146.29;100.00;59205.81;5084508;28;20430;-68
2024/01/31 01:07:22;;;;;;;14.17;9.60;;;;;;;-146.29;100.00;59205.81;5090134;28;20415;-68
2024/01/31 01:09:47;;;;;;;12.77;9.10;;;;;;;-146.29;100.00;59205.81;5093239;28;20186;-70
2024/01/31 01:12:13;;;;;;;17.70;10.10;;;;;;;-146.29;100.00;59205.81;5089065;28;20299;-70
2024/01/31 01:14:38;;;;;;;15.10;9.40;;;;;;;-146.29;100.00;59205.81;5077055;28;20185;-69
2024/01/31 01:17:04;;;;;;;13.80;9.40;;;;;;;-146.29;100.00;59205.81;5083894;28;20181;-70
2024/01/31 01:19:29;;;;;;;16.67;9.67;;;;;;;-146.29;100.00;59205.81;5089598;28;20205;-67
2024/01/31 01:21:56;;;;;;;15.03;8.53;;;;;;;-146.29;100.00;59205.81;5099264;28;20200;-68
2024/01/31 01:24:22;;;;;;;11.23;8.50;;;;;;;-146.29;100.00;59205.81;5095111;28;20544;-69
2024/01/31 01:26:47;;;;;;;13.70;8.93;;;;;;;-146.29;100.00;59205.81;5071523;28;20431;-69
2024/01/31 01:29:12;;;;;;;17.40;10.30;;;;;;;-146.29;100.00;59205.81;5087200;28;20721;-70
2024/01/31 01:31:38;;;;;;;14.63;10.00;;;;;;;-146.29;100.00;59205.81;5087451;28;20750;-69
2024/01/31 01:34:04;;;;;;;13.30;8.73;;;;;;;-146.29;100.00;59205.81;5081209;28;20182;-70
2024/01/31 01:36:29;;;;;;;15.53;9.13;;;;;;;-146.29;100.00;59205.81;5083520;28;20185;-69
2024/01/31 01:38:54;;;;;;;13.47;9.20;;;;;;;-146.29;100.00;59205.81;5096777;28;20293;-69
2024/01/31 01:41:20;;;;;;;16.17;9.00;;;;;;;-146.29;100.00;59205.81;5091196;28;20181;-70
2024/01/31 01:43:47;;;;;;;14.40;9.00;;;;;;;-146.29;100.00;59205.81;5081815;28;20265;-68
2024/01/31 01:46:14;;;;;;;12.83;8.43;;;;;;;-146.29;100.00;59205.81;5105997;28;20195;-69
2024/01/31 01:48:41;;;;;;;8.73;7.83;;;;;;;-146.29;100.00;59205.81;5065591;28;20424;-69
2024/01/31 01:51:06;;;;;;;17.93;8.80;;;;;;;-146.29;100.00;59205.81;5101322;28;20878;-68
2024/01/31 01:53:35;;;;;;;19.17;9.70;;;;;;;-146.29;100.00;59205.81;5070395;28;20459;-69
2024/01/31 01:56:02;;;;;;;12.47;8.43;;;;;;;-146.29;100.00;59205.81;5065591;28;20178;-68
2024/01/31 01:58:28;;;;;;;13.93;8.50;;;;;;;-146.29;100.00;59205.81;5090036;28;20458;-68
2024/01/31 02:00:54;;;;;;;14.70;8.70;;;;;;;-146.29;100.00;59205.81;5093896;28;20463;-68
2024/01/31 02:03:20;;;;;;;12.67;8.90;;;;;;;-146.29;100.00;59205.81;5099786;28;20450;-69
2024/01/31 02:05:46;;;;;;;12.07;8.70;;;;;;;-146.29;100.00;59205.81;5067497;28;20192;-69
2024/01/31 02:08:11;;;;;;;14.30;8.80;;;;;;;-146.29;100.00;59205.81;5067257;28;20424;-69
2024/01/31 02:10:37;;;;;;;13.30;8.73;;;;;;;-146.29;100.00;59205.81;5080305;28;20181;-68
2024/01/31 02:13:02;;;;;;;11.97;8.37;;;;;;;-146.29;100.00;59205.81;5099082;28;20205;-68
2024/01/31 02:15:28;;;;;;;11.30;7.83;;;;;;;-146.29;100.00;59205.81;5086219;28;20205;-67
2024/01/31 02:17:53;;;;;;;13.87;8.43;;;;;;;-146.29;100.00;59205.81;5084363;28;20185;-69
2024/01/31 02:20:19;;;;;;;13.20;8.97;;;;;;;-146.29;100.00;59205.81;5089065;28;20292;-70
2024/01/31 02:22:48;;;;;;;10.93;7.90;;;;;;;-146.29;100.00;59205.81;5096165;28;20205;-69
2024/01/31 02:25:14;;;;;;;20.03;8.73;;;;;;;-146.29;100.00;59205.81;5084788;28;20412;-69
2024/01/31 02:27:40;;;;;;;14.10;8.37;;;;;;;-146.29;100.00;59205.81;5069749;28;20475;-68
2024/01/31 02:30:07;;;;;;;12.13;8.43;;;;;;;-146.29;100.00;59205.81;5072621;28;20424;-67
2024/01/31 02:32:33;;;;;;;15.83;8.40;;;;;;;-146.29;100.00;59205.81;5078494;28;20448;-66
2024/01/31 02:34:59;;;;;;;13.00;8.50;;;;;;;-146.29;100.00;59205.81;5075669;28;20477;-68
2024/01/31 02:37:24;;;;;;;10.80;7.63;;;;;;;-146.29;100.00;59205.81;5081650;28;20712;-68
2024/01/31 02:39:49;;;;;;;15.93;9.20;;;;;;;-146.29;100.00;59205.81;5084895;28;20202;-72
2024/01/31 02:42:15;;;;;;;13.43;8.67;;;;;;;-146.29;100.00;59205.81;5100493;28;20758;-68
2024/01/31 02:44:40;;;;;;;17.67;8.57;;;;;;;-146.29;100.00;59205.81;5092777;28;20504;-69
2024/01/31 02:47:06;;;;;;;16.40;9.50;;;;;;;-146.29;100.00;59205.81;5090538;28;20265;-70
2024/01/31 02:49:31;;;;;;;18.37;8.63;;;;;;;-146.29;100.00;59205.81;5096464;28;20276;-67
2024/01/31 02:51:57;;;;;;;13.27;8.37;;;;;;;-146.29;100.00;59205.81;5088612;28;20232;-68
2024/01/31 02:54:22;;;;;;;11.23;8.40;;;;;;;-146.29;100.00;59205.81;5089847;28;20264;-70
2024/01/31 02:56:48;;;;;;;13.10;7.57;;;;;;;-146.29;100.00;59205.81;5070052;28;20237;-69
2024/01/31 02:59:13;;;;;;;11.70;7.27;;;;;;;-146.29;100.00;59205.81;5095993;28;20312;-69
2024/01/31 03:01:49;;;;;;;15.73;8.87;;;;;;;-146.29;100.00;59205.81;5090349;28;20256;-69
2024/01/31 03:04:15;;;;;;;9.63;7.67;;;;;;;-146.29;100.00;59205.81;5084483;28;20802;-69
2024/01/31 03:06:40;;;;;;;9.50;7.30;;;;;;;-146.29;100.00;59205.81;5076583;28;20415;-71
2024/01/31 03:09:06;;;;;;;12.53;7.63;;;;;;;-146.29;100.00;59205.81;5074347;28;20224;-70
2024/01/31 03:11:31;;;;;;;9.10;6.93;;;;;;;-146.29;100.00;59205.81;5095858;28;20228;-69
2024/01/31 03:13:56;;;;;;;11.07;7.17;;;;;;;-146.29;100.00;59205.81;5072267;28;20182;-70
2024/01/31 03:16:22;;;;;;;8.50;6.63;;;;;;;-146.29;100.00;59205.81;5085668;28;20197;-70
2024/01/31 03:18:47;;;;;;;8.67;7.17;;;;;;;-146.29;100.00;59205.81;5082590;28;20697;-69
2024/01/31 03:21:13;;;;;;;9.60;7.40;;;;;;;-146.29;100.00;59205.81;5070060;28;20186;-70
2024/01/31 03:23:38;;;;;;;15.10;7.97;;;;;;;-146.29;100.00;59205.81;5092760;28;20201;-68
2024/01/31 03:26:04;;;;;;;8.37;6.60;;;;;;;-146.29;100.00;59205.81;5082609;28;20178;-67
2024/01/31 03:28:29;;;;;;;12.73;7.40;;;;;;;-146.29;100.00;59205.81;5090575;28;20182;-68
2024/01/31 03:30:55;;;;;;;9.37;7.07;;;;;;;-146.29;100.00;59205.81;5084300;28;20194;-68
2024/01/31 03:33:20;;;;;;;9.43;6.80;;;;;;;-146.29;100.00;59205.81;5078169;28;20205;-69
2024/01/31 03:35:46;;;;;;;11.20;7.20;;;;;;;-146.29;100.00;59205.81;5084717;28;20552;-68
2024/01/31 03:38:11;;;;;;;11.13;6.90;;;;;;;-146.29;100.00;59205.81;5087626;28;20178;-69
2024/01/31 03:40:37;;;;;;;9.07;6.73;;;;;;;-146.29;100.00;59205.81;5090261;28;20205;-68
2024/01/31 03:43:02;;;;;;;9.77;7.20;;;;;;;-146.29;100.00;59205.81;5073308;28;20330;-68
2024/01/31 03:45:28;;;;;;;10.63;7.50;;;;;;;-146.29;100.00;59205.81;5092898;28;20189;-70
2024/01/31 03:47:53;;;;;;;10.60;7.20;;;;;;;-146.29;100.00;59205.81;5093681;28;20184;-69
2024/01/31 03:50:19;;;;;;;10.00;6.93;;;;;;;-146.29;100.00;59205.81;5093954;28;20182;-68
2024/01/31 03:52:45;;;;;;;9.63;7.50;;;;;;;-146.29;100.00;59205.81;5084383;28;20230;-70
2024/01/31 03:55:11;;;;;;;10.10;7.20;;;;;;;-146.29;100.00;59205.81;5081472;28;20424;-68
2024/01/31 03:57:36;;;;;;;8.17;6.67;;;;;;;-146.29;100.00;59205.81;5095705;28;20217;-69
2024/01/31 04:00:08;;;;;;;9.57;7.20;;;;;;;-146.29;100.00;59205.81;5085130;28;20296;-69
2024/01/31 04:02:34;;;;;;;9.67;6.63;;;;;;;-146.29;100.00;59205.81;5092092;28;20236;-69
2024/01/31 04:04:59;;;;;;;11.97;7.00;;;;;;;-146.29;100.00;59205.81;5086059;28;20420;-71
2024/01/31 04:07:26;;;;;;;11.30;7.27;;;;;;;-146.29;100.00;59205.81;5089015;28;20495;-68
2024/01/31 04:09:52;;;;;;;7.73;6.60;;;;;;;-146.29;100.00;59205.81;5088562;28;20195;-69
2024/01/31 04:12:17;;;;;;;12.00;7.73;;;;;;;-146.29;100.00;59205.81;5082238;28;20719;-66
2024/01/31 04:14:42;;;;;;;9.07;7.47;;;;;;;-146.29;100.00;59205.81;5093043;28;20261;-69
2024/01/31 04:17:08;;;;;;;13.20;7.80;;;;;;;-146.29;100.00;59205.81;5086658;28;20272;-68
2024/01/31 04:19:33;;;;;;;10.40;7.30;;;;;;;-146.29;100.00;59205.81;5085195;28;20284;-68
2024/01/31 04:21:59;;;;;;;15.23;7.40;;;;;;;-146.29;100.00;59205.81;5093487;28;20288;-70
2024/01/31 04:24:24;;;;;;;9.83;6.93;;;;;;;-146.29;100.00;59205.81;5098398;28;20177;-68
2024/01/31 04:26:50;;;;;;;11.13;7.00;;;;;;;-146.29;100.00;59205.81;5082105;28;20789;-69
2024/01/31 04:29:15;;;;;;;11.17;7.30;;;;;;;-146.29;100.00;59205.81;5055174;28;20557;-68
2024/01/31 04:31:41;;;;;;;35.73;15.10;;;;;;;-146.29;100.00;59205.81;5082440;28;20331;-68
2024/01/31 04:34:06;;;;;;;32.60;14.10;;;;;;;-146.29;100.00;59205.81;5075099;28;20174;-67
2024/01/31 04:36:32;;;;;;;13.57;9.13;;;;;;;-146.29;100.00;59205.81;5071492;28;20197;-68
2024/01/31 04:38:58;;;;;;;10.70;7.47;;;;;;;-146.29;100.00;59205.81;5082167;28;20560;-69
2024/01/31 04:41:23;;;;;;;16.27;8.60;;;;;;;-146.29;100.00;59205.81;5084192;28;20208;-71
2024/01/31 04:43:48;;;;;;;12.60;8.40;;;;;;;-146.29;100.00;59205.81;5081216;28;20447;-68
2024/01/31 04:46:14;;;;;;;12.50;7.77;;;;;;;-146.29;100.00;59205.81;5077213;28;20269;-68
2024/01/31 04:48:40;;;;;;;10.53;7.47;;;;;;;-146.29;100.00;59205.81;5079056;28;20265;-67
2024/01/31 04:51:05;;;;;;;13.70;6.97;;;;;;;-146.29;100.00;59205.81;5090482;28;20583;-67
2024/01/31 04:53:31;;;;;;;12.70;8.13;;;;;;;-146.29;100.00;59205.81;5073658;28;20241;-68
2024/01/31 04:55:56;;;;;;;12.23;7.73;;;;;;;-146.29;100.00;59205.81;5082122;28;20270;-68
2024/01/31 04:58:22;;;;;;;10.60;8.03;;;;;;;-146.29;100.00;59205.81;5082661;28;20186;-68
2024/01/31 05:00:47;;;;;;;13.50;7.80;;;;;;;-146.29;100.00;59205.81;5076977;28;20304;-68
2024/01/31 05:03:13;;;;;;;19.37;9.43;;;;;;;-146.29;100.00;59205.81;5072938;28;20247;-68
2024/01/31 05:05:38;;;;;;;11.20;8.23;;;;;;;-146.29;100.00;59205.81;5072995;28;20178;-69
2024/01/31 05:08:07;;;;;;;14.40;8.07;;;;;;;-146.29;100.00;59205.81;5081092;28;20254;-68
2024/01/31 05:10:34;;;;;;;11.00;8.23;;;;;;;-146.29;100.00;59205.81;5059595;28;20179;-68
2024/01/31 05:13:00;;;;;;;10.33;7.47;;;;;;;-146.29;100.00;59205.81;5086064;28;20440;-68
2024/01/31 05:15:26;;;;;;;9.80;7.50;;;;;;;-146.29;100.00;59205.81;5094859;28;20478;-67
2024/01/31 05:17:51;;;;;;;12.50;8.10;;;;;;;-146.29;100.00;59205.81;5062662;28;20940;-68
2024/01/31 05:20:17;;;;;;;11.97;7.90;;;;;;;-146.29;100.00;59205.81;5081347;28;20635;-67
2024/01/31 05:22:42;;;;;;;9.57;7.40;;;;;;;-146.29;100.00;59205.81;5072871;28;20300;-67
2024/01/31 05:25:08;;;;;;;8.90;7.77;;;;;;;-146.29;100.00;59205.81;5078692;28;20173;-68
2024/01/31 05:27:35;;;;;;;12.93;8.07;;;;;;;-146.29;100.00;59205.81;5077549;28;20189;-69
2024/01/31 05:30:03;;;;;;;8.73;6.70;;;;;;;-146.29;100.00;59205.81;5057194;28;20280;-69
2024/01/31 05:32:30;;;;;;;20.03;11.80;;;;;;;-146.29;100.00;59205.81;5071087;28;20455;-68
2024/01/31 05:34:55;;;;;;;18.60;11.90;;;;;;;-146.29;100.00;59205.81;5077857;28;20432;-69
2024/01/31 05:37:21;;;;;;;37.00;21.70;;;;;;;-146.29;100.00;59205.81;5077073;28;20469;-68
2024/01/31 05:39:46;;;;;;;24.93;15.13;;;;;;;-146.29;100.00;59205.81;5069755;28;20593;-67
2024/01/31 05:42:12;;;;;;;19.17;13.17;;;;;;;-146.29;100.00;59205.81;5082800;28;20787;-68
2024/01/31 05:44:37;;;;;;;25.10;15.73;;;;;;;-146.29;100.00;59205.81;5079047;28;20190;-68
2024/01/31 05:47:03;;;;;;;27.20;15.70;;;;;;;-146.29;100.00;59205.81;5074275;28;20258;-69
2024/01/31 05:49:28;;;;;;;19.67;13.07;;;;;;;-146.29;100.00;59205.81;5069674;28;20654;-68
2024/01/31 05:51:53;;;;;;;27.20;18.40;;;;;;;-146.29;100.00;59205.81;5071589;28;20201;-70
2024/01/31 05:54:19;;;;;;;22.63;14.20;;;;;;;-146.29;100.00;59205.81;5077446;28;20182;-67
2024/01/31 05:56:44;;;;;;;16.03;10.87;;;;;;;-146.29;100.00;59205.81;5075704;28;20186;-68
2024/01/31 05:59:10;;;;;;;16.60;9.60;;;;;;;-146.29;100.00;59205.81;5088165;28;20760;-68
2024/01/31 06:01:36;;;;;;;19.23;10.77;;;;;;;-146.29;100.00;59205.81;5084429;28;20201;-69
2024/01/31 06:04:03;;;;;;;16.60;11.30;;;;;;;-146.29;100.00;59205.81;5043261;28;20181;-70
2024/01/31 06:06:29;;;;;;;24.70;11.67;;;;;;;-146.29;100.00;59205.81;5042484;28;20218;-70
2024/01/31 06:08:55;;;;;;;18.07;11.70;;;;;;;-146.29;100.00;59205.81;5073210;28;20511;-70
2024/01/31 06:11:21;;;;;;;14.10;10.20;;;;;;;-146.29;100.00;59205.81;5077037;28;20590;-69
2024/01/31 06:13:46;;;;;;;20.33;11.63;;;;;;;-146.29;100.00;59205.81;5083917;28;20937;-67
2024/01/31 06:16:13;;;;;;;15.23;10.47;;;;;;;-146.29;100.00;59205.81;5055841;28;20207;-68
2024/01/31 06:18:38;;;;;;;19.13;10.83;;;;;;;-146.29;100.00;59205.81;5081584;28;20195;-67
2024/01/31 06:21:04;;;;;;;14.30;9.07;;;;;;;-146.29;100.00;59205.81;5075015;28;20969;-67
2024/01/31 06:23:30;;;;;;;13.53;9.90;;;;;;;-146.29;100.00;59205.81;5079868;28;20225;-67
2024/01/31 06:25:56;;;;;;;11.67;10.07;;;;;;;-146.29;100.00;59205.81;5075692;28;20428;-68
2024/01/31 06:28:21;;;;;;;18.00;10.20;;;;;;;-146.29;100.00;59205.81;5084626;28;21171;-67
2024/01/31 06:30:58;;;;;;;12.63;9.77;;;;;;;-146.29;100.00;59205.81;5083055;28;20173;-67
2024/01/31 06:33:27;;;;;;;16.47;11.83;;;;;;;-146.29;100.00;59205.81;5081301;28;20281;-70
2024/01/31 06:35:52;;;;;;;24.00;20.57;;;;;;;-146.29;100.00;59205.81;5090436;28;20417;-70
2024/01/31 06:38:18;;;;;;;24.30;19.97;;;;;;;-146.29;100.00;59205.81;5077588;28;20428;-71
2024/01/31 06:40:43;;;;;;;20.13;15.00;;;;;;;-146.29;100.00;59205.81;5094374;28;20201;-69
2024/01/31 06:43:09;;;;;;;26.90;15.37;;;;;;;-146.29;100.00;59205.81;5082508;28;20190;-69
2024/01/31 06:45:34;;;;;;;16.90;12.30;;;;;;;-146.29;100.00;59205.81;5055743;28;20212;-66
2024/01/31 06:48:00;;;;;;;17.43;10.87;;;;;;;-146.29;100.00;59205.81;5070195;28;20179;-69
2024/01/31 06:50:26;;;;;;;18.40;11.93;;;;;;;-146.29;100.00;59205.81;5072142;28;20186;-69
2024/01/31 06:52:51;;;;;;;25.30;15.13;;;;;;;-146.29;100.00;59205.81;5083917;28;20484;-70
2024/01/31 06:55:17;;;;;;;20.90;13.73;;;;;;;-146.29;100.00;59205.81;5078275;28;20261;-69
2024/01/31 06:57:42;;;;;;;19.87;12.93;;;;;;;-146.29;100.00;59205.81;5077786;28;20181;-68
2024/01/31 07:00:12;;;;;;;24.27;12.47;;;;;;;-146.29;100.00;59205.81;5060802;28;20194;-68
2024/01/31 07:02:38;;;;;;;24.57;11.47;;;;;;;-146.29;100.00;59205.81;5089613;28;20191;-68
2024/01/31 07:05:04;;;;;;;11.73;10.30;;;;;;;-146.29;100.00;59205.81;5087762;28;20467;-68
2024/01/31 07:07:30;;;;;;;18.80;12.87;;;;;;;-146.29;100.00;59205.81;5076242;28;20423;-68
2024/01/31 07:09:56;;;;;;;21.20;14.03;;;;;;;-146.29;100.00;59205.81;5090479;28;20485;-70
2024/01/31 07:12:21;;;;;;;16.90;11.63;;;;;;;-146.29;100.00;59205.81;5084325;28;20470;-68
2024/01/31 07:14:47;;;;;;;17.73;10.30;;;;;;;-146.29;100.00;59205.81;5081585;28;20558;-69
2024/01/31 07:17:12;;;;;;;11.50;9.40;;;;;;;-146.29;100.00;59205.81;5080151;28;20228;-69
2024/01/31 07:19:42;;;;;;;13.17;9.93;;;;;;;-146.29;100.00;59205.81;5084140;28;20293;-68
2024/01/31 07:22:08;;;;;;;16.10;10.73;;;;;;;-146.29;100.00;59205.81;5061124;28;20281;-69
2024/01/31 07:24:34;;;;;;;15.07;10.00;;;;;;;-146.29;100.00;59205.81;5076534;28;20417;-68
2024/01/31 07:27:00;;;;;;;18.40;10.17;;;;;;;-146.29;100.00;59205.81;5090123;28;20977;-68
2024/01/31 07:29:26;;;;;;;14.53;9.73;;;;;;;-146.29;100.00;59205.81;5081389;28;20952;-68
2024/01/31 07:31:51;;;;;;;14.47;10.33;;;;;;;-146.29;100.00;59205.81;5080757;28;20179;-69
2024/01/31 07:34:16;;;;;;;18.40;10.60;;;;;;;-146.29;100.00;59205.81;5077712;28;20656;-68
2024/01/31 07:36:43;;;;;;;12.00;9.30;;;;;;;-146.29;100.00;59205.81;5078241;28;20678;-68
2024/01/31 07:39:08;;;;;;;13.23;9.90;;;;;;;-146.29;100.00;59205.81;5087381;28;20212;-67
2024/01/31 07:41:34;;;;;;;11.87;9.20;;;;;;;-146.29;100.00;59205.81;5087250;28;20413;-68
2024/01/31 07:43:59;;;;;;;16.03;10.10;;;;;;;-146.29;100.00;59205.81;5060657;28;20247;-68
2024/01/31 07:46:25;;;;;;;16.60;10.10;;;;;;;-146.29;100.00;59205.81;5086829;28;20177;-69
2024/01/31 07:48:50;;;;;;;20.50;12.50;;;;;;;-146.29;100.00;59205.81;5079484;28;20729;-70
2024/01/31 07:51:16;;;;;;;26.83;15.40;;;;;;;-146.29;100.00;59205.81;5087707;28;20205;-68
2024/01/31 07:53:41;;;;;;;27.77;17.80;;;;;;;-146.29;100.00;59205.81;5082805;28;20206;-67
2024/01/31 07:56:07;;;;;;;27.60;20.07;;;;;;;-146.29;100.00;59205.81;5071096;28;20634;-69
2024/01/31 07:58:32;;;;;;;30.40;20.80;;;;;;;-146.29;100.00;59205.81;5088187;28;20181;-68
2024/01/31 08:00:57;;;;;;;27.23;13.80;;;;;;;-146.29;100.00;59205.81;5077150;28;20180;-69
2024/01/31 08:03:23;;;;;;;14.93;10.13;;;;;;;-146.29;100.00;59205.81;5093991;28;20201;-69
2024/01/31 08:05:48;;;;;;;13.33;9.90;;;;;;;-146.29;100.00;59205.81;5079629;28;20273;-70
2024/01/31 08:08:17;;;;;;;15.87;9.00;;;;;;;-146.29;100.00;59205.81;5069419;28;20174;-69
2024/01/31 08:10:42;;;;;;;11.83;8.60;;;;;;;-146.29;100.00;59205.81;5080540;28;20764;-68
2024/01/31 08:13:08;;;;;;;17.60;9.90;;;;;;;-146.29;100.00;59205.81;5095189;28;20536;-68
2024/01/31 08:15:34;;;;;;;15.77;10.13;;;;;;;-146.29;100.00;59205.81;5083260;28;20196;-69
2024/01/31 08:18:01;;;;;;;16.07;9.50;;;;;;;-146.29;100.00;59205.81;5079464;28;20174;-69
2024/01/31 08:20:26;;;;;;;15.73;10.30;;;;;;;-146.29;100.00;59205.81;5075556;28;20544;-69
2024/01/31 08:22:51;;;;;;;16.90;10.00;;;;;;;-146.29;100.00;59205.81;5074934;28;20956;-69
2024/01/31 08:25:17;;;;;;;18.17;10.00;;;;;;;-146.29;100.00;59205.81;5073957;28;20181;-69
2024/01/31 08:27:42;;;;;;;15.13;11.00;;;;;;;-146.29;100.00;59205.81;5076170;28;20246;-69
2024/01/31 08:30:08;;;;;;;16.30;11.10;;;;;;;-146.29;100.00;59205.81;5057461;28;20170;-69
2024/01/31 08:32:34;;;;;;;14.87;10.53;;;;;;;-146.29;100.00;59205.81;5081363;28;20211;-69
2024/01/31 08:35:01;;;;;;;17.70;11.07;;;;;;;-146.29;100.00;59205.81;5071011;28;20785;-68
2024/01/31 08:37:27;;;;;;;25.93;10.27;;;;;;;-146.29;100.00;59205.81;5082514;28;20655;-69
2024/01/31 08:39:52;;;;;;;19.63;9.80;;;;;;;-146.29;100.00;59205.81;5076085;28;20452;-68
2024/01/31 08:42:18;;;;;;;16.33;10.90;;;;;;;-146.29;100.00;59205.81;5088492;28;20196;-68
2024/01/31 08:44:43;;;;;;;16.73;10.90;;;;;;;-146.29;100.00;59205.81;5075061;28;20170;-68
2024/01/31 08:47:09;;;;;;;14.40;10.70;;;;;;;-146.29;100.00;59205.81;5081564;28;20202;-68
2024/01/31 08:49:34;;;;;;;15.30;10.83;;;;;;;-146.29;100.00;59205.81;5077492;28;20716;-68
2024/01/31 08:51:59;;;;;;;23.43;15.10;;;;;;;-146.29;100.00;59205.81;5081517;28;20273;-69
2024/01/31 08:54:25;;;;;;;17.67;12.63;;;;;;;-146.29;100.00;59205.81;5080617;28;20315;-69
2024/01/31 08:56:50;;;;;;;18.50;12.50;;;;;;;-146.29;100.00;59205.81;5081514;28;20186;-69
2024/01/31 08:59:17;;;;;;;24.93;12.80;;;;;;;-146.29;100.00;59205.81;5071710;28;20559;-68
2024/01/31 09:01:46;;;;;;;25.73;14.43;;;;;;;-146.29;100.00;59205.81;5077823;28;20653;-68
2024/01/31 09:04:12;;;;;;;21.20;16.40;;;;;;;-146.29;100.00;59205.81;5091810;28;20407;-68
2024/01/31 09:06:39;;;;;;;17.33;13.97;;;;;;;-146.29;100.00;59205.81;5094464;28;20958;-68
2024/01/31 09:09:06;;;;;;;18.73;13.20;;;;;;;-146.29;100.00;59205.81;5087793;28;20421;-68
2024/01/31 09:11:32;;;;;;;16.40;11.93;;;;;;;-146.29;100.00;59205.81;5086800;28;20499;-69
2024/01/31 09:13:57;;;;;;;20.27;13.60;;;;;;;-146.29;100.00;59205.81;5095721;28;20955;-71
2024/01/31 09:16:23;;;;;;;26.93;17.80;;;;;;;-146.29;100.00;59205.81;5087110;28;20450;-69
2024/01/31 09:18:49;;;;;;;25.23;17.33;;;;;;;-146.29;100.00;59205.81;5087834;28;20296;-67
2024/01/31 09:21:22;;;;;;;23.63;15.33;;;;;;;-146.29;100.00;59205.81;5087025;28;20514;-68
2024/01/31 09:23:47;;;;;;;20.53;14.10;;;;;;;-146.29;100.00;59205.81;5082285;28;20236;-67
2024/01/31 09:26:13;;;;;;;18.40;13.27;;;;;;;-146.29;100.00;59205.81;5092335;28;20420;-69
2024/01/31 09:28:39;;;;;;;17.77;14.00;;;;;;;-146.29;100.00;59205.81;5093702;28;20196;-68
2024/01/31 09:31:04;;;;;;;19.23;14.13;;;;;;;-146.29;100.00;59205.81;5099127;28;20188;-69
2024/01/31 09:33:30;;;;;;;19.13;14.33;;;;;;;-146.29;100.00;59205.81;5087479;28;20454;-69
2024/01/31 09:35:55;;;;;;;18.40;13.20;;;;;;;-146.29;100.00;59205.81;5086797;28;20189;-69
2024/01/31 09:38:25;;;;;;;22.20;13.73;;;;;;;-146.29;100.00;59205.81;5087813;28;20222;-69
2024/01/31 09:40:50;;;;;;;24.00;15.30;;;;;;;-146.29;100.00;59205.81;5097505;28;20822;-68
2024/01/31 09:43:16;;;;;;;21.70;14.37;;;;;;;-146.29;100.00;59205.81;5089697;28;20470;-68
2024/01/31 09:45:42;;;;;;;20.50;14.03;;;;;;;-146.29;100.00;59205.81;5087418;28;20188;-68
2024/01/31 09:48:08;;;;;;;19.73;14.07;;;;;;;-146.29;100.00;59205.81;5057808;28;20554;-69
2024/01/31 09:50:33;;;;;;;21.80;14.87;;;;;;;-146.29;100.00;59205.81;5080047;28;20180;-69
2024/01/31 09:53:01;;;;;;;26.53;14.20;;;;;;;-146.29;100.00;59205.81;5085654;28;20506;-69
2024/01/31 09:55:27;;;;;;;19.43;13.90;;;;;;;-146.29;100.00;59205.81;5087509;28;20178;-69
2024/01/31 09:57:53;;;;;;;18.23;13.93;;;;;;;-146.29;100.00;59205.81;5095594;28;20785;-69
2024/01/31 10:00:18;;;;;;;17.40;13.77;;;;;;;-146.29;100.00;59205.81;5090595;28;20185;-70
2024/01/31 10:02:47;;;;;;;17.10;13.30;;;;;;;-146.29;100.00;59205.81;5079692;28;20212;-69
2024/01/31 10:05:13;;;;;;;19.80;14.10;;;;;;;-146.29;100.00;59205.81;5092418;28;20189;-68
2024/01/31 10:07:41;;;;;;;17.60;13.03;;;;;;;-146.29;100.00;59205.81;5097508;28;20976;-67
2024/01/31 10:10:07;;;;;;;22.50;14.47;;;;;;;-146.29;100.00;59205.81;5106537;28;20662;-69
2024/01/31 10:12:32;;;;;;;17.87;13.20;;;;;;;-146.29;100.00;59205.81;5073703;28;20449;-68
2024/01/31 10:14:58;;;;;;;19.80;12.60;;;;;;;-146.29;100.00;59205.81;5057709;28;20495;-69
2024/01/31 10:17:23;;;;;;;19.40;14.10;;;;;;;-146.29;100.00;59205.81;5090254;28;20186;-69
2024/01/31 10:19:49;;;;;;;22.80;13.10;;;;;;;-146.29;100.00;59205.81;5092813;28;20202;-70
2024/01/31 10:22:15;;;;;;;16.97;13.53;;;;;;;-146.29;100.00;59205.81;5070780;28;20213;-69
2024/01/31 10:24:45;;;;;;;27.60;13.90;;;;;;;-146.29;100.00;59205.81;5091777;28;20178;-69
2024/01/31 10:27:11;;;;;;;18.67;13.10;;;;;;;-146.29;100.00;59205.81;5103724;28;20522;-68
2024/01/31 10:29:39;;;;;;;18.80;13.40;;;;;;;-146.29;100.00;59205.81;5096477;28;20454;-68
2024/01/31 10:32:05;;;;;;;17.67;13.90;;;;;;;-146.29;100.00;59205.81;5102997;28;20206;-69
2024/01/31 10:34:33;;;;;;;20.20;13.87;;;;;;;-146.29;100.00;59205.81;5081900;28;20462;-72
2024/01/31 10:36:59;;;;;;;21.93;13.93;;;;;;;-146.29;100.00;59205.81;5095946;28;20436;-68
2024/01/31 10:39:24;;;;;;;17.53;12.60;;;;;;;-146.29;100.00;59205.81;5082648;28;20462;-68
2024/01/31 10:41:50;;;;;;;18.87;13.00;;;;;;;-146.29;100.00;59205.81;5084527;28;20758;-68
2024/01/31 10:44:16;;;;;;;15.97;12.63;;;;;;;-146.29;100.00;59205.81;5089846;28;20177;-68
2024/01/31 10:46:43;;;;;;;19.60;13.77;;;;;;;-146.29;100.00;59205.81;5075765;28;20198;-67
2024/01/31 10:49:11;;;;;;;16.57;13.40;;;;;;;-146.29;100.00;59205.81;5099821;28;20184;-69
2024/01/31 10:51:37;;;;;;;18.67;12.47;;;;;;;-146.29;100.00;59205.81;5094011;28;20475;-68
2024/01/31 10:54:04;;;;;;;19.83;13.23;;;;;;;-146.29;100.00;59205.81;5031008;28;20455;-68